Time;durP1;ratioP1;P1;durP2;ratioP2;P2;SDS_P1;SDS_P2;PMS_P1;PMS_P2;Temp;Humidity;BMP_temperature;BMP_pressure;BME280_temperature;BME280_humidity;BME280_pressure;Samples;Min_cycle;Max_cycle;Signal;HPM_P1;HPM_P2
2023/11/03 00:02:09;;;;;;;6.37;5.77;;;11.50;99.90;;;;;;5084757;28;20298;-66
2023/11/03 00:04:37;;;;;;;6.43;5.83;;;11.50;99.90;;;;;;5084340;28;20207;-66
2023/11/03 00:07:05;;;;;;;6.20;5.60;;;11.50;99.90;;;;;;5084810;28;20211;-66
2023/11/03 00:09:33;;;;;;;5.30;4.90;;;11.50;99.90;;;;;;5084694;28;20215;-65
2023/11/03 00:12:00;;;;;;;5.50;5.10;;;11.50;99.90;;;;;;5085324;28;20218;-65
2023/11/03 00:14:28;;;;;;;5.50;5.17;;;11.50;99.90;;;;;;5084695;28;20223;-66
2023/11/03 00:16:56;;;;;;;5.50;5.10;;;11.50;99.90;;;;;;5098873;28;20202;-65
2023/11/03 00:19:25;;;;;;;5.60;5.20;;;11.50;99.90;;;;;;5104465;28;20206;-66
2023/11/03 00:21:53;;;;;;;5.37;4.97;;;11.50;99.90;;;;;;5104912;28;20198;-66
2023/11/03 00:24:22;;;;;;;5.93;5.50;;;11.50;99.90;;;;;;5088764;28;20286;-65
2023/11/03 00:26:48;;;;;;;5.53;5.03;;;11.50;99.90;;;;;;5088164;28;20205;-65
2023/11/03 00:29:16;;;;;;;5.90;5.20;;;11.50;99.90;;;;;;5103885;28;20320;-65
2023/11/03 00:31:45;;;;;;;5.43;4.97;;;11.50;99.90;;;;;;5101596;28;20213;-65
2023/11/03 00:34:13;;;;;;;5.90;5.30;;;11.50;99.90;;;;;;5091937;28;20199;-65
2023/11/03 00:36:41;;;;;;;5.43;5.03;;;11.50;99.90;;;;;;5084468;28;20323;-65
2023/11/03 00:39:12;;;;;;;5.37;4.97;;;11.50;99.90;;;;;;5084488;28;20230;-65
2023/11/03 00:41:39;;;;;;;5.47;4.97;;;11.50;99.90;;;;;;5083995;28;20285;-65
2023/11/03 00:44:07;;;;;;;5.53;5.10;;;11.50;99.90;;;;;;5084157;28;20886;-65
2023/11/03 00:46:35;;;;;;;5.37;4.97;;;11.50;99.90;;;;;;5096110;28;20206;-65
2023/11/03 00:49:02;;;;;;;5.87;5.40;;;11.50;99.90;;;;;;5104050;28;20668;-68
2023/11/03 00:51:29;;;;;;;5.90;4.87;;;11.50;99.90;;;;;;5104443;28;20272;-65
2023/11/03 00:53:56;;;;;;;5.10;4.80;;;11.50;99.90;;;;;;5084192;28;20286;-65
2023/11/03 00:56:24;;;;;;;5.37;4.83;;;11.40;99.90;;;;;;5084238;28;20298;-65
2023/11/03 00:58:52;;;;;;;5.30;4.90;;;11.40;99.90;;;;;;5084400;28;20251;-65
2023/11/03 01:01:18;;;;;;;5.73;4.50;;;11.40;99.90;;;;;;5084372;28;20682;-66
2023/11/03 01:03:46;;;;;;;5.33;4.93;;;11.40;99.90;;;;;;5093461;28;20301;-66
2023/11/03 01:06:13;;;;;;;5.43;5.07;;;11.40;99.90;;;;;;5084232;28;20305;-66
2023/11/03 01:08:40;;;;;;;5.07;4.57;;;11.40;99.90;;;;;;5084015;28;20203;-66
2023/11/03 01:11:09;;;;;;;5.00;4.60;;;11.40;99.90;;;;;;5084320;28;20283;-66
2023/11/03 01:13:37;;;;;;;5.67;5.17;;;11.40;99.90;;;;;;5105381;28;20839;-66
2023/11/03 01:16:07;;;;;;;5.60;5.20;;;11.40;99.90;;;;;;5108029;28;20301;-66
2023/11/03 01:18:35;;;;;;;5.47;4.97;;;11.50;99.90;;;;;;5107737;28;20275;-65
2023/11/03 01:21:09;;;;;;;5.00;4.60;;;11.40;99.90;;;;;;5100153;28;20199;-65
2023/11/03 01:23:35;;;;;;;5.23;4.93;;;11.40;99.90;;;;;;5087676;28;20224;-65
2023/11/03 01:26:03;;;;;;;4.87;4.47;;;11.40;99.90;;;;;;5087651;28;20286;-65
2023/11/03 01:28:30;;;;;;;5.30;4.90;;;11.40;99.90;;;;;;5100250;28;20238;-65
2023/11/03 01:30:59;;;;;;;4.77;4.37;;;11.40;99.90;;;;;;5107404;28;20190;-65
2023/11/03 01:33:26;;;;;;;5.17;4.60;;;11.40;99.90;;;;;;5107882;28;20297;-65
2023/11/03 01:35:53;;;;;;;4.87;4.37;;;11.40;99.90;;;;;;5106025;28;20280;-65
2023/11/03 01:38:19;;;;;;;8.13;4.43;;;11.40;99.90;;;;;;5087520;28;20314;-65
2023/11/03 01:40:46;;;;;;;4.80;4.50;;;11.40;99.90;;;;;;5089268;28;20199;-65
2023/11/03 01:43:13;;;;;;;5.13;4.73;;;11.40;99.90;;;;;;5103367;28;20251;-65
2023/11/03 01:45:41;;;;;;;4.50;4.10;;;11.40;99.90;;;;;;5107943;27;20245;-65
2023/11/03 01:48:10;;;;;;;4.87;4.37;;;11.40;99.90;;;;;;5107641;28;20208;-65
2023/11/03 01:50:37;;;;;;;4.53;4.13;;;11.40;99.90;;;;;;5100529;27;20676;-65
2023/11/03 01:53:04;;;;;;;6.53;4.20;;;11.40;99.90;;;;;;5087379;28;20634;-65
2023/11/03 01:55:32;;;;;;;4.70;4.30;;;11.40;99.90;;;;;;5093581;28;20202;-66
2023/11/03 01:57:59;;;;;;;4.77;4.37;;;11.40;99.90;;;;;;5107478;28;20230;-66
2023/11/03 02:00:26;;;;;;;4.80;4.40;;;11.30;99.90;;;;;;5105898;28;20332;-66
2023/11/03 02:02:55;;;;;;;3.93;3.63;;;11.40;99.90;;;;;;5088486;28;20213;-66
2023/11/03 02:05:23;;;;;;;4.00;3.70;;;11.40;99.90;;;;;;5107337;28;20206;-66
2023/11/03 02:07:50;;;;;;;3.90;3.70;;;11.30;99.90;;;;;;5106495;28;20210;-66
2023/11/03 02:10:17;;;;;;;3.67;3.47;;;11.30;99.90;;;;;;5087052;28;20301;-66
2023/11/03 02:12:44;;;;;;;5.00;4.43;;;11.30;99.90;;;;;;5086965;28;20221;-66
2023/11/03 02:15:11;;;;;;;3.50;3.30;;;11.30;99.90;;;;;;5087614;28;20301;-66
2023/11/03 02:17:39;;;;;;;4.03;3.73;;;11.30;99.90;;;;;;5087191;28;20211;-65
2023/11/03 02:20:07;;;;;;;4.13;3.83;;;11.30;99.90;;;;;;5087585;28;20294;-65
2023/11/03 02:22:36;;;;;;;3.90;3.60;;;11.30;99.90;;;;;;5089372;28;20650;-65
2023/11/03 02:25:04;;;;;;;4.07;3.77;;;11.30;99.90;;;;;;5092489;28;20293;-65
2023/11/03 02:27:31;;;;;;;4.40;3.90;;;11.30;99.90;;;;;;5086318;28;20310;-65
2023/11/03 02:29:58;;;;;;;3.60;3.30;;;11.30;99.90;;;;;;5086284;28;20296;-65
2023/11/03 02:32:25;;;;;;;3.77;3.47;;;11.30;99.90;;;;;;5102892;28;20234;-66
2023/11/03 02:34:52;;;;;;;4.13;3.30;;;11.20;99.90;;;;;;5088083;28;20309;-66
2023/11/03 02:37:19;;;;;;;3.60;3.30;;;11.20;99.90;;;;;;5090163;28;20284;-66
2023/11/03 02:39:47;;;;;;;3.60;3.40;;;11.20;99.90;;;;;;5106458;28;20328;-66
2023/11/03 02:42:16;;;;;;;3.80;3.60;;;11.20;99.90;;;;;;5106104;28;20314;-66
2023/11/03 02:44:43;;;;;;;4.20;3.60;;;11.20;99.90;;;;;;5094381;28;20199;-66
2023/11/03 02:47:10;;;;;;;3.93;3.63;;;11.20;99.90;;;;;;5102302;28;20206;-66
2023/11/03 02:49:37;;;;;;;4.23;3.83;;;11.20;99.90;;;;;;5106560;27;20305;-66
2023/11/03 02:52:04;;;;;;;4.10;3.80;;;11.20;99.90;;;;;;5107094;28;20202;-66
2023/11/03 02:54:31;;;;;;;3.80;3.60;;;11.10;99.90;;;;;;5096319;28;20282;-66
2023/11/03 02:56:58;;;;;;;4.00;3.77;;;11.10;99.90;;;;;;5095816;28;20225;-66
2023/11/03 02:59:26;;;;;;;3.87;3.47;;;11.10;99.90;;;;;;5106483;28;20368;-66
2023/11/03 03:01:53;;;;;;;3.23;3.03;;;11.10;99.90;;;;;;5106612;28;20212;-66
2023/11/03 03:04:20;;;;;;;3.73;3.23;;;11.10;99.90;;;;;;5105710;28;20293;-66
2023/11/03 03:06:47;;;;;;;3.83;3.63;;;11.10;99.90;;;;;;5105958;28;20656;-67
2023/11/03 03:09:14;;;;;;;3.80;3.50;;;11.10;99.90;;;;;;5105855;28;20660;-66
2023/11/03 03:11:41;;;;;;;4.03;3.67;;;11.10;99.90;;;;;;5105829;28;20630;-66
2023/11/03 03:14:08;;;;;;;3.70;3.40;;;11.10;99.90;;;;;;5105492;28;20282;-66
2023/11/03 03:16:37;;;;;;;3.43;3.23;;;11.00;99.90;;;;;;5105349;28;20575;-65
2023/11/03 03:19:05;;;;;;;3.60;3.30;;;11.10;99.90;;;;;;5105299;28;20257;-66
2023/11/03 03:21:32;;;;;;;3.67;3.37;;;11.00;99.90;;;;;;5104608;28;20237;-66
2023/11/03 03:23:59;;;;;;;3.43;3.17;;;11.10;99.90;;;;;;5105334;28;20284;-66
2023/11/03 03:26:26;;;;;;;3.50;3.30;;;11.00;99.90;;;;;;5104250;27;20238;-65
2023/11/03 03:28:53;;;;;;;4.43;3.03;;;11.00;99.90;;;;;;5104482;28;20212;-66
2023/11/03 03:31:20;;;;;;;2.80;2.70;;;11.00;99.90;;;;;;5104529;28;20267;-65
2023/11/03 03:33:49;;;;;;;2.80;2.60;;;11.00;99.90;;;;;;5091805;28;20735;-65
2023/11/03 03:36:16;;;;;;;3.40;2.73;;;11.00;99.90;;;;;;5103422;28;20225;-66
2023/11/03 03:38:43;;;;;;;3.20;2.90;;;11.00;99.90;;;;;;5103067;28;20780;-66
2023/11/03 03:41:13;;;;;;;3.70;3.20;;;11.00;99.90;;;;;;5103627;28;20202;-66
2023/11/03 03:43:41;;;;;;;3.43;3.13;;;11.10;99.90;;;;;;5091391;28;20264;-65
2023/11/03 03:46:07;;;;;;;3.00;2.80;;;11.00;99.90;;;;;;5083150;28;20661;-65
2023/11/03 03:48:34;;;;;;;4.17;2.80;;;11.00;99.90;;;;;;5083446;28;20290;-66
2023/11/03 03:51:03;;;;;;;2.90;2.70;;;11.00;99.90;;;;;;5092526;28;20230;-65
2023/11/03 03:53:30;;;;;;;4.83;3.07;;;11.00;99.90;;;;;;5083968;28;20261;-66
2023/11/03 03:55:57;;;;;;;3.13;2.93;;;11.00;99.90;;;;;;5091994;28;20251;-66
2023/11/03 03:58:24;;;;;;;2.90;2.70;;;11.00;99.90;;;;;;5102351;28;20314;-66
2023/11/03 04:00:52;;;;;;;3.00;2.80;;;11.00;99.90;;;;;;5101850;28;20251;-66
2023/11/03 04:03:19;;;;;;;3.10;2.90;;;11.00;99.90;;;;;;5090706;28;20693;-66
2023/11/03 04:05:46;;;;;;;3.23;3.03;;;11.00;99.90;;;;;;5085324;28;20214;-66
2023/11/03 04:08:14;;;;;;;2.87;2.67;;;11.00;99.90;;;;;;5093645;28;20206;-66
2023/11/03 04:10:41;;;;;;;3.40;3.10;;;11.00;99.90;;;;;;5104686;28;20787;-66
2023/11/03 04:13:08;;;;;;;3.37;3.00;;;11.00;99.90;;;;;;5105390;28;20213;-66
2023/11/03 04:15:35;;;;;;;3.60;3.30;;;11.00;99.90;;;;;;5105179;27;20202;-66
2023/11/03 04:18:02;;;;;;;3.17;2.97;;;11.00;99.90;;;;;;5104749;28;20644;-66
2023/11/03 04:20:29;;;;;;;3.10;2.80;;;10.90;99.90;;;;;;5105008;28;20237;-66
2023/11/03 04:22:56;;;;;;;3.60;3.40;;;10.90;99.90;;;;;;5105606;28;20340;-66
2023/11/03 04:25:24;;;;;;;3.30;3.03;;;10.80;99.90;;;;;;5105321;28;20216;-66
2023/11/03 04:27:52;;;;;;;3.40;3.10;;;10.80;99.90;;;;;;5105472;28;20202;-66
2023/11/03 04:30:19;;;;;;;3.10;2.90;;;10.80;99.90;;;;;;5103993;28;20266;-66
2023/11/03 04:32:47;;;;;;;4.03;3.13;;;10.80;99.90;;;;;;5084571;28;20206;-66
2023/11/03 04:35:14;;;;;;;3.30;3.00;;;10.80;99.90;;;;;;5084972;28;20268;-66
2023/11/03 04:37:41;;;;;;;3.23;2.90;;;10.80;99.90;;;;;;5084893;28;20297;-66
2023/11/03 04:40:09;;;;;;;6.87;3.10;;;10.80;99.90;;;;;;5084416;28;20234;-66
2023/11/03 04:42:37;;;;;;;3.63;2.80;;;10.80;99.90;;;;;;5084799;28;20305;-66
2023/11/03 04:45:05;;;;;;;3.33;3.10;;;10.80;99.90;;;;;;5084641;28;20206;-66
2023/11/03 04:47:32;;;;;;;3.70;2.70;;;10.80;99.90;;;;;;5087328;28;20313;-66
2023/11/03 04:49:58;;;;;;;3.90;2.90;;;10.70;99.90;;;;;;5089149;28;20234;-66
2023/11/03 04:52:25;;;;;;;3.00;2.80;;;10.70;99.90;;;;;;5088606;28;20264;-66
2023/11/03 04:54:52;;;;;;;2.80;2.60;;;10.70;99.90;;;;;;5088324;28;20705;-66
2023/11/03 04:57:21;;;;;;;2.67;2.47;;;10.70;99.90;;;;;;5100975;28;20285;-66
2023/11/03 04:59:49;;;;;;;3.10;2.50;;;10.70;99.90;;;;;;5108600;28;20753;-66
2023/11/03 05:02:17;;;;;;;2.50;2.37;;;10.70;99.90;;;;;;5108748;28;20209;-66
2023/11/03 05:04:44;;;;;;;2.50;2.30;;;10.70;99.90;;;;;;5108782;28;20880;-66
2023/11/03 05:07:11;;;;;;;2.50;2.30;;;10.70;99.90;;;;;;5109042;28;20317;-66
2023/11/03 05:09:38;;;;;;;2.60;2.40;;;10.60;99.90;;;;;;5108767;28;20299;-66
2023/11/03 05:12:05;;;;;;;3.13;2.67;;;10.60;99.90;;;;;;5108902;28;20205;-66
2023/11/03 05:14:32;;;;;;;3.97;2.27;;;10.60;99.90;;;;;;5108600;28;20635;-66
2023/11/03 05:17:00;;;;;;;2.87;2.57;;;10.50;99.90;;;;;;5099048;27;20293;-66
2023/11/03 05:19:27;;;;;;;2.47;2.27;;;10.50;99.90;;;;;;5088326;28;20819;-66
2023/11/03 05:21:55;;;;;;;4.77;2.40;;;10.40;99.90;;;;;;5088686;28;20648;-66
2023/11/03 05:24:22;;;;;;;2.30;2.10;;;10.40;99.90;;;;;;5088596;28;20659;-66
2023/11/03 05:26:49;;;;;;;2.07;1.90;;;10.20;99.90;;;;;;5091758;28;20212;-66
2023/11/03 05:29:22;;;;;;;2.07;1.90;;;10.10;99.90;;;;;;5108834;28;20201;-66
2023/11/03 05:31:49;;;;;;;2.30;2.03;;;10.00;99.90;;;;;;5108684;27;20544;-66
2023/11/03 05:34:18;;;;;;;4.63;1.73;;;10.00;99.90;;;;;;5095009;28;20231;-66
2023/11/03 05:36:45;;;;;;;2.03;1.47;;;9.90;99.90;;;;;;5087786;28;20215;-66
2023/11/03 05:39:13;;;;;;;1.87;1.50;;;9.90;99.90;;;;;;5087534;28;20245;-66
2023/11/03 05:41:42;;;;;;;2.97;1.30;;;9.90;99.90;;;;;;5087553;28;20207;-66
2023/11/03 05:44:09;;;;;;;3.57;1.30;;;10.00;99.90;;;;;;5087392;28;20206;-66
2023/11/03 05:46:36;;;;;;;3.97;1.20;;;10.00;99.90;;;;;;5087838;28;20209;-66
2023/11/03 05:49:04;;;;;;;2.73;1.30;;;10.00;99.90;;;;;;5088036;28;20297;-66
2023/11/03 05:51:32;;;;;;;3.47;1.20;;;10.10;99.90;;;;;;5087879;28;20763;-66
2023/11/03 05:53:59;;;;;;;2.77;1.40;;;10.10;99.90;;;;;;5103781;28;20205;-66
2023/11/03 05:56:26;;;;;;;1.17;1.03;;;10.20;99.90;;;;;;5108291;28;20298;-66
2023/11/03 05:58:53;;;;;;;3.17;1.10;;;10.20;99.90;;;;;;5107409;28;20357;-67
2023/11/03 06:01:20;;;;;;;4.63;1.37;;;10.10;99.90;;;;;;5117657;27;20625;-65
2023/11/03 06:03:47;;;;;;;3.83;1.50;;;10.10;99.90;;;;;;5119042;27;20210;-66
2023/11/03 06:06:16;;;;;;;3.10;1.23;;;10.10;99.90;;;;;;5108036;28;20210;-66
2023/11/03 06:08:44;;;;;;;3.43;1.33;;;10.10;99.90;;;;;;5107816;27;20206;-66
2023/11/03 06:11:11;;;;;;;5.43;1.50;;;10.00;99.90;;;;;;5108045;28;20206;-66
2023/11/03 06:13:38;;;;;;;5.17;1.47;;;9.80;99.90;;;;;;5107368;28;20210;-66
2023/11/03 06:16:06;;;;;;;3.57;1.13;;;9.80;99.90;;;;;;5107930;28;20296;-66
2023/11/03 06:18:32;;;;;;;5.33;1.50;;;9.80;99.90;;;;;;5107516;28;20289;-66
2023/11/03 06:20:59;;;;;;;2.93;1.10;;;9.80;99.90;;;;;;5108203;27;20324;-66
2023/11/03 06:23:27;;;;;;;2.63;1.30;;;9.70;99.90;;;;;;5107610;28;20298;-66
2023/11/03 06:25:55;;;;;;;3.10;1.00;;;9.70;99.90;;;;;;5106346;28;20247;-66
2023/11/03 06:28:22;;;;;;;1.83;1.00;;;9.70;99.90;;;;;;5087323;28;20214;-66
2023/11/03 06:30:49;;;;;;;3.83;1.00;;;9.70;99.90;;;;;;5087099;28;20691;-66
2023/11/03 06:33:16;;;;;;;4.20;1.10;;;9.70;99.90;;;;;;5087490;28;20207;-66
2023/11/03 06:35:43;;;;;;;3.33;1.20;;;9.70;99.90;;;;;;5086948;28;20240;-66
2023/11/03 06:38:10;;;;;;;2.87;1.37;;;9.70;99.90;;;;;;5087382;28;20298;-66
2023/11/03 06:40:37;;;;;;;2.27;1.40;;;9.70;99.90;;;;;;5086769;28;20316;-65
2023/11/03 06:43:06;;;;;;;2.37;1.17;;;9.70;99.90;;;;;;5087128;28;20203;-66
2023/11/03 06:45:32;;;;;;;1.97;1.10;;;9.80;99.90;;;;;;5086984;28;20214;-66
2023/11/03 06:48:00;;;;;;;4.60;1.37;;;9.80;99.90;;;;;;5086659;28;20217;-65
2023/11/03 06:50:27;;;;;;;4.40;1.10;;;9.80;99.90;;;;;;5103995;28;20241;-66
2023/11/03 06:52:55;;;;;;;4.17;1.60;;;9.80;99.90;;;;;;5107012;27;20625;-66
2023/11/03 06:55:22;;;;;;;3.77;1.00;;;9.80;99.90;;;;;;5106762;28;21069;-66
2023/11/03 06:57:49;;;;;;;2.10;1.03;;;9.70;99.90;;;;;;5107298;28;20300;-66
2023/11/03 07:00:18;;;;;;;2.77;1.23;;;9.80;99.90;;;;;;5106514;28;21020;-66
2023/11/03 07:02:45;;;;;;;5.63;1.80;;;9.80;99.90;;;;;;5106469;27;20216;-66
2023/11/03 07:05:13;;;;;;;5.90;1.30;;;9.80;99.90;;;;;;5086397;28;20202;-66
2023/11/03 07:07:40;;;;;;;2.13;1.40;;;9.80;99.90;;;;;;5086181;28;20242;-66
2023/11/03 07:10:09;;;;;;;5.23;1.30;;;9.70;99.90;;;;;;5100971;28;20293;-66
2023/11/03 07:12:36;;;;;;;4.33;1.30;;;9.70;99.90;;;;;;5106984;28;20201;-66
2023/11/03 07:15:04;;;;;;;2.27;1.20;;;9.70;99.90;;;;;;5106822;28;20256;-66
2023/11/03 07:17:32;;;;;;;4.57;1.30;;;9.80;99.90;;;;;;5106272;28;20310;-66
2023/11/03 07:20:00;;;;;;;3.83;1.00;;;9.80;99.90;;;;;;5097332;28;20236;-66
2023/11/03 07:22:27;;;;;;;3.10;1.20;;;9.80;99.90;;;;;;5086069;28;20206;-66
2023/11/03 07:24:54;;;;;;;2.50;1.70;;;9.90;99.90;;;;;;5086159;28;20709;-66
2023/11/03 07:27:21;;;;;;;4.73;1.20;;;9.90;99.90;;;;;;5087665;28;20215;-66
2023/11/03 07:29:48;;;;;;;1.80;1.10;;;9.90;99.90;;;;;;5105998;28;20210;-66
2023/11/03 07:32:15;;;;;;;3.37;1.47;;;9.90;99.90;;;;;;5105696;28;20240;-66
2023/11/03 07:34:43;;;;;;;2.43;1.37;;;10.00;99.90;;;;;;5089048;28;20330;-66
2023/11/03 07:37:12;;;;;;;3.30;1.07;;;10.10;99.90;;;;;;5085549;28;20219;-66
2023/11/03 07:39:39;;;;;;;6.77;1.80;;;10.10;99.90;;;;;;5085291;28;20236;-66
2023/11/03 07:42:07;;;;;;;2.33;1.60;;;10.10;99.90;;;;;;5085542;28;20313;-66
2023/11/03 07:44:34;;;;;;;3.07;1.50;;;10.10;99.90;;;;;;5085407;28;20207;-66
2023/11/03 07:47:05;;;;;;;3.83;1.47;;;10.10;99.90;;;;;;5100213;28;20695;-66
2023/11/03 07:49:32;;;;;;;5.10;1.70;;;10.00;99.90;;;;;;5105502;27;20201;-66
2023/11/03 07:52:00;;;;;;;3.77;1.60;;;10.00;99.90;;;;;;5105818;28;20237;-66
2023/11/03 07:54:27;;;;;;;4.13;1.43;;;9.90;99.90;;;;;;5105961;28;20210;-66
2023/11/03 07:56:54;;;;;;;2.53;1.23;;;10.00;99.90;;;;;;5105915;28;20262;-66
2023/11/03 07:59:21;;;;;;;3.10;1.50;;;10.10;99.90;;;;;;5105306;28;20234;-66
2023/11/03 08:01:48;;;;;;;6.13;2.07;;;10.10;99.90;;;;;;5105739;28;20209;-66
2023/11/03 08:04:16;;;;;;;3.80;1.50;;;10.20;99.90;;;;;;5105245;28;20214;-66
2023/11/03 08:06:47;;;;;;;3.77;1.23;;;10.20;99.90;;;;;;5105488;28;20202;-66
2023/11/03 08:09:15;;;;;;;4.90;1.30;;;10.30;99.90;;;;;;5105757;28;20277;-66
2023/11/03 08:11:42;;;;;;;1.57;1.27;;;10.30;99.90;;;;;;5105190;28;20682;-66
2023/11/03 08:14:09;;;;;;;6.00;1.60;;;10.40;99.90;;;;;;5105658;28;20304;-66
2023/11/03 08:16:42;;;;;;;3.97;1.83;;;10.40;99.90;;;;;;5105563;28;20293;-66
2023/11/03 08:19:09;;;;;;;4.60;1.43;;;10.40;99.90;;;;;;5105055;28;20230;-66
2023/11/03 08:21:41;;;;;;;3.47;1.40;;;10.40;99.90;;;;;;5105508;28;20329;-66
2023/11/03 08:24:10;;;;;;;2.87;1.33;;;10.50;99.90;;;;;;5100206;28;20210;-66
2023/11/03 08:26:38;;;;;;;3.43;1.43;;;10.50;99.90;;;;;;5084861;28;20246;-66
2023/11/03 08:29:05;;;;;;;3.80;1.70;;;10.60;99.90;;;;;;5085449;28;20206;-66
2023/11/03 08:31:34;;;;;;;8.20;6.77;;;10.60;99.90;;;;;;5085342;28;20216;-66
2023/11/03 08:34:02;;;;;;;3.43;2.40;;;10.60;99.90;;;;;;5095794;28;20230;-66
2023/11/03 08:36:29;;;;;;;3.90;1.70;;;10.60;99.90;;;;;;5105479;28;20213;-66
2023/11/03 08:38:55;;;;;;;3.67;1.20;;;10.70;99.90;;;;;;5105407;28;20206;-66
2023/11/03 08:41:25;;;;;;;2.83;1.60;;;10.70;99.90;;;;;;5100617;28;20325;-66
2023/11/03 08:43:53;;;;;;;4.50;1.80;;;10.70;99.90;;;;;;5085112;28;20215;-66
2023/11/03 08:46:20;;;;;;;3.90;1.93;;;10.80;99.90;;;;;;5085135;28;20203;-66
2023/11/03 08:48:47;;;;;;;6.27;1.57;;;10.80;99.90;;;;;;5085348;28;20219;-66
2023/11/03 08:51:15;;;;;;;3.67;1.87;;;10.80;99.90;;;;;;5085140;28;20699;-66
2023/11/03 08:53:43;;;;;;;3.60;1.67;;;10.80;99.90;;;;;;5085121;28;20210;-66
2023/11/03 08:56:12;;;;;;;6.40;1.87;;;10.70;99.90;;;;;;5085267;28;20611;-66
2023/11/03 08:58:40;;;;;;;3.53;1.37;;;10.60;99.90;;;;;;5084599;28;20260;-66
2023/11/03 09:01:09;;;;;;;5.33;1.60;;;10.60;99.90;;;;;;5086994;28;20226;-66
2023/11/03 09:03:37;;;;;;;6.00;1.53;;;10.70;99.90;;;;;;5105539;28;20217;-66
2023/11/03 09:06:05;;;;;;;3.27;1.53;;;10.60;99.90;;;;;;5105084;28;20301;-66
2023/11/03 09:08:33;;;;;;;4.90;1.87;;;10.60;99.90;;;;;;5105488;28;20245;-66
2023/11/03 09:11:00;;;;;;;3.87;1.33;;;10.60;99.90;;;;;;5105452;28;20206;-66
2023/11/03 09:13:27;;;;;;;4.13;1.40;;;10.70;99.90;;;;;;5088020;28;20212;-66
2023/11/03 09:15:54;;;;;;;2.53;1.10;;;10.80;99.90;;;;;;5085057;28;20758;-66
2023/11/03 09:18:24;;;;;;;1.97;1.17;;;10.90;99.90;;;;;;5084832;28;20297;-66
2023/11/03 09:20:51;;;;;;;6.27;1.37;;;10.70;99.90;;;;;;5084661;28;20235;-66
2023/11/03 09:23:19;;;;;;;3.67;1.50;;;10.70;99.90;;;;;;5085037;28;20238;-66
2023/11/03 09:25:46;;;;;;;3.60;1.60;;;10.60;99.90;;;;;;5084305;28;20685;-66
2023/11/03 09:28:13;;;;;;;3.07;1.20;;;10.60;99.90;;;;;;5084619;28;20674;-66
2023/11/03 09:30:41;;;;;;;3.07;1.60;;;10.60;99.90;;;;;;5084624;28;20221;-66
2023/11/03 09:33:08;;;;;;;3.10;1.40;;;10.60;99.90;;;;;;5089961;28;20245;-66
2023/11/03 09:35:36;;;;;;;4.90;1.40;;;10.60;99.90;;;;;;5108933;28;20293;-66
2023/11/03 09:38:03;;;;;;;3.63;1.60;;;10.60;99.90;;;;;;5108522;28;20284;-66
2023/11/03 09:40:34;;;;;;;3.00;1.57;;;10.60;99.90;;;;;;5108192;28;20324;-66
2023/11/03 09:43:02;;;;;;;3.27;1.57;;;10.60;99.90;;;;;;5108575;28;20190;-66
2023/11/03 09:45:29;;;;;;;2.57;1.87;;;10.70;99.90;;;;;;5108905;28;20202;-66
2023/11/03 09:47:59;;;;;;;3.67;1.23;;;10.70;99.90;;;;;;5108145;28;20669;-66
2023/11/03 09:50:27;;;;;;;2.27;1.23;;;10.70;99.90;;;;;;5108056;28;20716;-66
2023/11/03 09:52:58;;;;;;;8.03;1.50;;;10.90;99.90;;;;;;5108309;28;20210;-66
2023/11/03 09:55:26;;;;;;;4.90;1.43;;;10.90;99.90;;;;;;5108177;28;20289;-66
2023/11/03 09:57:58;;;;;;;6.80;1.50;;;10.90;99.90;;;;;;5101221;28;20753;-66
2023/11/03 10:00:28;;;;;;;6.27;1.93;;;10.90;99.90;;;;;;5087389;28;20301;-66
2023/11/03 10:02:55;;;;;;;2.93;1.70;;;10.80;99.90;;;;;;5087854;28;20206;-66
2023/11/03 10:05:24;;;;;;;5.97;2.43;;;10.80;99.90;;;;;;5087681;28;20680;-66
2023/11/03 10:08:01;;;;;;;2.73;1.47;;;10.80;99.90;;;;;;5089726;28;20206;-66
2023/11/03 10:10:29;;;;;;;4.17;1.43;;;10.80;99.90;;;;;;5107985;28;20212;-66
2023/11/03 10:12:57;;;;;;;2.63;1.30;;;10.80;99.90;;;;;;5108079;28;20656;-66
2023/11/03 10:15:25;;;;;;;3.13;1.30;;;10.80;99.90;;;;;;5099212;28;20272;-66
2023/11/03 10:17:53;;;;;;;1.27;1.17;;;10.80;99.90;;;;;;5087679;28;20215;-66
2023/11/03 10:20:22;;;;;;;2.00;1.57;;;10.90;99.90;;;;;;5087558;28;20207;-66
2023/11/03 10:22:49;;;;;;;2.37;1.30;;;11.00;99.90;;;;;;5087301;28;20241;-67
2023/11/03 10:25:18;;;;;;;4.30;1.53;;;11.00;99.90;;;;;;5087215;28;20253;-66
2023/11/03 10:27:48;;;;;;;3.60;1.60;;;11.00;99.90;;;;;;5086801;28;20207;-66
2023/11/03 10:30:16;;;;;;;5.53;1.70;;;11.10;99.90;;;;;;5087428;28;20198;-66
2023/11/03 10:32:44;;;;;;;3.73;1.40;;;11.10;99.90;;;;;;5087235;28;20202;-66
2023/11/03 10:35:12;;;;;;;3.77;1.20;;;11.10;99.90;;;;;;5107913;28;20297;-65
2023/11/03 10:37:41;;;;;;;3.07;1.40;;;11.20;99.90;;;;;;5107835;28;20808;-66
2023/11/03 10:40:12;;;;;;;4.33;1.70;;;11.20;99.90;;;;;;5107873;27;20292;-66
2023/11/03 10:42:47;;;;;;;2.13;1.53;;;11.20;99.90;;;;;;5107444;28;20701;-67
2023/11/03 10:45:16;;;;;;;3.23;1.73;;;11.30;99.90;;;;;;5106536;28;20194;-66
2023/11/03 10:47:53;;;;;;;5.83;1.37;;;11.40;99.90;;;;;;5107407;28;20213;-66
2023/11/03 10:50:21;;;;;;;2.27;1.40;;;11.40;99.90;;;;;;5107315;28;20557;-66
2023/11/03 10:52:55;;;;;;;3.30;1.47;;;11.50;99.90;;;;;;5107233;28;20243;-66
2023/11/03 10:55:27;;;;;;;2.53;1.70;;;11.50;99.90;;;;;;5107232;28;20309;-67
2023/11/03 10:57:57;;;;;;;6.07;4.00;;;11.40;99.90;;;;;;5107206;28;20241;-66
2023/11/03 11:00:30;;;;;;;3.00;1.67;;;11.40;99.90;;;;;;5106985;28;20715;-66
2023/11/03 11:03:14;;;;;;;3.60;1.57;;;11.40;99.90;;;;;;5105348;28;20715;-66
2023/11/03 11:05:48;;;;;;;3.73;1.27;;;11.40;99.90;;;;;;5086952;28;20256;-66
2023/11/03 11:08:17;;;;;;;2.93;1.40;;;11.50;99.90;;;;;;5086734;28;20195;-66
2023/11/03 11:10:46;;;;;;;3.73;1.40;;;11.50;99.90;;;;;;5086457;28;20215;-66
2023/11/03 11:13:18;;;;;;;2.90;1.37;;;11.40;99.90;;;;;;5094606;28;20214;-68
2023/11/03 11:16:04;;;;;;;3.23;1.30;;;11.40;99.90;;;;;;5106607;28;20836;-66
2023/11/03 11:18:33;;;;;;;2.70;1.27;;;11.50;99.90;;;;;;5106544;28;20280;-66
2023/11/03 11:21:05;;;;;;;6.10;1.60;;;11.50;99.90;;;;;;5106672;28;20261;-66
2023/11/03 11:23:34;;;;;;;2.90;1.40;;;11.60;99.90;;;;;;5106553;28;20222;-66
2023/11/03 11:26:02;;;;;;;2.67;1.27;;;11.60;99.90;;;;;;5104774;28;20220;-66
2023/11/03 11:28:37;;;;;;;2.70;1.63;;;11.70;99.90;;;;;;5086405;28;20207;-66
2023/11/03 11:31:39;;;;;;;3.07;1.40;;;11.70;99.90;;;;;;5091492;28;20544;-66
2023/11/03 11:34:07;;;;;;;3.83;1.43;;;11.80;99.90;;;;;;5085823;28;20321;-66
2023/11/03 11:36:39;;;;;;;5.17;1.80;;;11.80;99.90;;;;;;5086035;28;20209;-66
2023/11/03 11:39:14;;;;;;;2.70;1.30;;;11.80;99.90;;;;;;5086146;28;20187;-66
2023/11/03 11:41:48;;;;;;;5.73;1.50;;;11.80;99.90;;;;;;5085686;28;20230;-66
2023/11/03 11:44:19;;;;;;;2.03;1.03;;;11.80;99.90;;;;;;5086022;28;20625;-66
2023/11/03 11:46:52;;;;;;;4.53;1.50;;;11.90;99.90;;;;;;5085706;28;20191;-66
2023/11/03 11:49:21;;;;;;;2.57;1.30;;;11.90;99.90;;;;;;5085432;28;20199;-66
2023/11/03 11:51:49;;;;;;;2.63;1.50;;;11.90;99.90;;;;;;5104297;28;20202;-66
2023/11/03 11:54:18;;;;;;;2.97;1.30;;;11.90;99.90;;;;;;5106194;28;20329;-66
2023/11/03 11:56:45;;;;;;;4.73;1.60;;;11.90;99.90;;;;;;5105510;28;20297;-66
2023/11/03 11:59:16;;;;;;;3.20;1.40;;;11.90;99.90;;;;;;5106077;28;20571;-66
2023/11/03 12:01:44;;;;;;;2.50;1.43;;;11.80;99.90;;;;;;5106166;28;20832;-66
2023/11/03 12:04:11;;;;;;;2.80;1.57;;;11.70;99.90;;;;;;5106056;28;20229;-66
2023/11/03 12:06:40;;;;;;;3.13;1.57;;;11.70;99.90;;;;;;5106367;28;20210;-66
2023/11/03 12:09:07;;;;;;;5.80;1.90;;;11.70;99.90;;;;;;5087339;28;20203;-66
2023/11/03 12:11:34;;;;;;;2.23;1.43;;;11.70;99.90;;;;;;5085124;28;20217;-66
2023/11/03 12:14:01;;;;;;;4.10;1.60;;;11.80;99.90;;;;;;5085525;28;20297;-66
2023/11/03 12:16:29;;;;;;;5.80;1.73;;;11.70;99.90;;;;;;5085034;28;20294;-66
2023/11/03 12:18:56;;;;;;;7.50;1.50;;;11.80;99.90;;;;;;5085309;28;20233;-66
2023/11/03 12:21:24;;;;;;;4.03;1.10;;;11.90;99.90;;;;;;5084985;28;20330;-66
2023/11/03 12:23:52;;;;;;;3.87;1.40;;;11.90;99.90;;;;;;5084924;28;20211;-66
2023/11/03 12:26:19;;;;;;;4.37;1.53;;;12.00;99.90;;;;;;5088635;28;20198;-66
2023/11/03 12:28:45;;;;;;;2.77;1.57;;;12.10;99.90;;;;;;5105287;28;20675;-66
2023/11/03 12:31:13;;;;;;;4.50;1.87;;;12.20;99.90;;;;;;5105377;28;20308;-66
2023/11/03 12:33:44;;;;;;;4.03;1.50;;;12.30;99.90;;;;;;5097282;28;20494;-66
2023/11/03 12:36:14;;;;;;;3.40;1.53;;;12.50;99.90;;;;;;5085296;28;21007;-66
2023/11/03 12:38:45;;;;;;;2.63;1.20;;;12.60;99.90;;;;;;5084870;28;20248;-66
2023/11/03 12:41:16;;;;;;;4.23;1.50;;;12.80;99.90;;;;;;5085158;28;20490;-66
2023/11/03 12:44:04;;;;;;;4.10;1.53;;;13.00;99.90;;;;;;5085135;28;20285;-66
2023/11/03 12:46:33;;;;;;;4.47;1.50;;;13.30;99.90;;;;;;5090691;28;20210;-66
2023/11/03 12:49:08;;;;;;;2.10;1.27;;;13.40;99.90;;;;;;5105294;28;20213;-66
2023/11/03 12:51:36;;;;;;;6.33;1.43;;;13.60;99.90;;;;;;5104911;28;20263;-66
2023/11/03 12:54:03;;;;;;;5.07;1.77;;;13.70;99.90;;;;;;5105141;28;20210;-66